Time;durP1;ratioP1;P1;durP2;ratioP2;P2;SDS_P1;SDS_P2;PMS_P1;PMS_P2;Temp;Humidity;BMP_temperature;BMP_pressure;BME280_temperature;BME280_humidity;BME280_pressure;Samples;Min_cycle;Max_cycle;Signal;HPM_P1;HPM_P2
2021/11/21 00:00:32;;;;;;;35.72;27.80;;;;;;;8.82;100.00;101446.88;5260866;28;20024;-70
2021/11/21 00:03:03;;;;;;;35.90;28.20;;;;;;;8.83;100.00;101441.56;5262033;28;20037;-70
2021/11/21 00:05:38;;;;;;;35.22;29.15;;;;;;;8.81;100.00;101437.38;5258628;28;20032;-70
2021/11/21 00:08:11;;;;;;;37.58;29.73;;;;;;;8.82;100.00;101431.19;5260639;28;20036;-70
2021/11/21 00:10:43;;;;;;;37.05;28.15;;;;;;;8.78;100.00;101439.22;5259674;28;20104;-70
2021/11/21 00:13:14;;;;;;;36.00;28.45;;;;;;;8.83;100.00;101427.66;5257569;28;20028;-70
2021/11/21 00:15:46;;;;;;;35.40;27.23;;;;;;;8.84;100.00;101421.50;5256377;28;20063;-70
2021/11/21 00:18:17;;;;;;;35.97;27.73;;;;;;;8.81;100.00;101422.53;5257641;28;20055;-70
2021/11/21 00:20:48;;;;;;;35.92;27.38;;;;;;;8.84;100.00;101421.50;5257137;28;20032;-70
2021/11/21 00:23:22;;;;;;;35.40;27.63;;;;;;;8.81;100.00;101412.06;5258779;28;20036;-70
2021/11/21 00:25:53;;;;;;;36.25;27.63;;;;;;;8.80;100.00;101406.97;5259240;28;20040;-70
2021/11/21 00:28:25;;;;;;;37.10;27.90;;;;;;;8.75;100.00;101408.13;5258353;28;20036;-70
2021/11/21 00:30:56;;;;;;;36.67;28.65;;;;;;;8.77;100.00;101402.78;5256766;28;20033;-70
2021/11/21 00:33:28;;;;;;;36.83;27.75;;;;;;;8.77;100.00;101406.22;5256196;28;20435;-70
2021/11/21 00:36:00;;;;;;;37.25;28.08;;;;;;;8.77;100.00;101401.00;5258212;28;20477;-70
2021/11/21 00:38:31;;;;;;;34.58;26.75;;;;;;;8.81;100.00;101396.41;5257598;28;20040;-70
2021/11/21 00:41:03;;;;;;;34.22;26.05;;;;;;;8.78;100.00;101386.97;5258416;28;20025;-70
2021/11/21 00:43:35;;;;;;;35.60;26.23;;;;;;;8.78;100.00;101391.38;5257914;28;20049;-70
2021/11/21 00:46:06;;;;;;;34.92;26.52;;;;;;;8.74;100.00;101395.97;5254262;28;20029;-70
2021/11/21 00:48:38;;;;;;;35.67;25.75;;;;;;;8.75;100.00;101387.22;5257747;28;20067;-70
2021/11/21 00:51:10;;;;;;;32.17;24.27;;;;;;;8.75;100.00;101383.75;5255804;28;20028;-70
2021/11/21 00:53:43;;;;;;;32.40;25.52;;;;;;;8.77;100.00;101387.94;5256663;28;20033;-70
2021/11/21 00:56:15;;;;;;;33.92;25.35;;;;;;;8.74;100.00;101380.31;5255960;28;20733;-70
2021/11/21 00:58:46;;;;;;;30.65;23.23;;;;;;;8.77;100.00;101374.88;5255613;28;20032;-70
2021/11/21 01:01:18;;;;;;;30.83;24.08;;;;;;;8.74;100.00;101369.84;5256072;28;20029;-70
2021/11/21 01:03:52;;;;;;;34.03;24.60;;;;;;;8.78;100.00;101370.47;5256503;28;20078;-70
2021/11/21 01:06:23;;;;;;;;;;;;;;;9.31;100.00;101363.28;5258048;28;20031;-70
2021/11/21 01:08:55;;;;;;;31.67;23.63;;;;;;;8.83;100.00;101359.72;5255231;28;19917;-70
2021/11/21 01:11:26;;;;;;;30.73;23.80;;;;;;;8.79;100.00;101364.34;5256853;28;20136;-70
2021/11/21 01:13:57;;;;;;;34.22;24.02;;;;;;;8.84;100.00;101367.44;5256614;28;20024;-70
2021/11/21 01:16:29;;;;;;;33.85;24.58;;;;;;;8.84;100.00;101366.63;5257261;28;20710;-70
2021/11/21 01:19:00;;;;;;;31.40;24.55;;;;;;;8.82;100.00;101364.09;5257290;28;20028;-70
2021/11/21 01:21:32;;;;;;;31.90;24.05;;;;;;;8.80;100.00;101358.16;5256219;28;20086;-70
2021/11/21 01:24:03;;;;;;;34.92;24.02;;;;;;;8.81;100.00;101359.00;5258255;28;20032;-70
2021/11/21 01:26:35;;;;;;;30.65;23.13;;;;;;;8.85;100.00;101371.72;5257694;28;20031;-70
2021/11/21 01:29:06;;;;;;;29.88;22.25;;;;;;;8.83;100.00;101368.41;5255643;28;20032;-70
2021/11/21 01:31:38;;;;;;;30.17;22.35;;;;;;;8.81;100.00;101359.81;5255479;28;20033;-70
2021/11/21 01:34:09;;;;;;;29.42;22.85;;;;;;;8.82;100.00;101351.03;5256301;28;20021;-70
2021/11/21 01:36:41;;;;;;;33.47;23.80;;;;;;;8.84;100.00;101357.00;5256337;28;20084;-70
2021/11/21 01:39:15;;;;;;;28.10;21.75;;;;;;;8.88;100.00;101361.06;5255906;28;20068;-70
2021/11/21 01:41:47;;;;;;;30.20;22.60;;;;;;;8.84;100.00;101348.34;5261719;28;20379;-70
2021/11/21 01:44:18;;;;;;;31.35;22.55;;;;;;;8.82;100.00;101343.19;5256757;28;20036;-70
2021/11/21 01:46:51;;;;;;;32.33;22.83;;;;;;;8.86;100.00;101339.41;5259694;28;20048;-70
2021/11/21 01:49:23;;;;;;;31.52;22.23;;;;;;;8.84;100.00;101330.88;5261761;28;20016;-70
2021/11/21 01:51:54;;;;;;;31.48;21.92;;;;;;;8.85;100.00;101329.94;5258304;28;20393;-70
2021/11/21 01:54:25;;;;;;;30.92;22.77;;;;;;;8.85;100.00;101329.09;5244276;28;20032;-70
2021/11/21 01:56:57;;;;;;;31.02;22.67;;;;;;;8.87;100.00;101329.84;5259226;28;20522;-70
2021/11/21 01:59:29;;;;;;;29.38;21.50;;;;;;;8.86;100.00;101331.59;5262068;28;20056;-70
2021/11/21 02:02:01;;;;;;;29.88;21.92;;;;;;;8.90;100.00;101326.97;5258666;28;20434;-70
2021/11/21 02:04:33;;;;;;;31.80;21.67;;;;;;;8.91;100.00;101318.22;5259354;28;20123;-70
2021/11/21 02:07:04;;;;;;;30.20;22.25;;;;;;;8.86;100.00;101315.06;5263650;28;20032;-70
2021/11/21 02:09:35;;;;;;;29.08;22.13;;;;;;;8.93;100.00;101318.94;5259510;28;20029;-70
2021/11/21 02:12:07;;;;;;;31.83;23.58;;;;;;;8.91;100.00;101313.00;5260351;28;20051;-70
2021/11/21 02:14:38;;;;;;;29.92;21.40;;;;;;;8.90;100.00;101311.31;5259131;28;20065;-70
2021/11/21 02:17:10;;;;;;;30.45;22.00;;;;;;;8.90;100.00;101304.31;5260561;28;20017;-70
2021/11/21 02:19:41;;;;;;;30.05;22.23;;;;;;;8.91;100.00;101305.16;5259741;28;21424;-70
2021/11/21 02:22:12;;;;;;;31.00;22.58;;;;;;;8.92;100.00;101304.22;5261068;28;20158;-70
2021/11/21 02:24:44;;;;;;;29.67;22.52;;;;;;;8.92;100.00;101297.19;5260071;28;20127;-70
2021/11/21 02:27:22;;;;;;;30.67;23.17;;;;;;;8.96;100.00;101293.44;5260489;28;20477;-70
2021/11/21 02:29:53;;;;;;;27.80;22.00;;;;;;;8.91;100.00;101286.88;5261242;28;20036;-70
2021/11/21 02:32:25;;;;;;;29.27;22.17;;;;;;;8.92;100.00;101271.06;5241521;28;20028;-70
2021/11/21 02:34:56;;;;;;;32.78;23.13;;;;;;;8.93;100.00;101270.13;5261976;28;20029;-70
2021/11/21 02:37:28;;;;;;;30.23;22.23;;;;;;;8.94;100.00;101269.19;5259951;28;20495;-70
2021/11/21 02:39:59;;;;;;;30.63;22.92;;;;;;;8.91;100.00;101266.78;5258293;28;20528;-70
2021/11/21 02:42:34;;;;;;;30.60;23.17;;;;;;;8.96;100.00;101262.06;5259980;28;20176;-70
2021/11/21 02:45:12;;;;;;;31.95;22.83;;;;;;;8.91;100.00;101255.50;5263451;28;20505;-70
2021/11/21 02:47:44;;;;;;;32.40;22.48;;;;;;;8.93;100.00;101251.81;5260266;28;20036;-70
2021/11/21 02:50:21;;;;;;;32.05;23.77;;;;;;;9.00;100.00;101257.44;5258311;28;20174;-70
2021/11/21 02:52:53;;;;;;;34.17;24.92;;;;;;;8.92;100.00;101246.72;5259633;28;20074;-70
2021/11/21 02:55:28;;;;;;;33.38;24.30;;;;;;;8.95;100.00;101244.72;5256619;28;20113;-70
2021/11/21 02:58:01;;;;;;;32.45;23.67;;;;;;;8.97;100.00;101247.22;5242515;28;20025;-70
2021/11/21 03:00:35;;;;;;;32.25;24.40;;;;;;;8.99;100.00;101245.34;5258705;28;20035;-70
2021/11/21 03:03:06;;;;;;;34.55;25.23;;;;;;;8.94;100.00;101248.28;5257714;28;20656;-70
2021/11/21 03:05:37;;;;;;;34.15;25.20;;;;;;;8.94;100.00;101239.59;5238085;28;20066;-70
2021/11/21 03:08:09;;;;;;;33.58;23.58;;;;;;;8.95;100.00;101246.50;5259250;28;20096;-70
2021/11/21 03:10:41;;;;;;;36.20;24.50;;;;;;;8.92;100.00;101226.66;5241194;28;20037;-70
2021/11/21 03:13:12;;;;;;;35.90;24.98;;;;;;;8.97;100.00;101234.97;5260534;28;20045;-70
2021/11/21 03:15:43;;;;;;;37.10;24.77;;;;;;;8.97;100.00;101231.53;5256080;28;20035;-70
2021/11/21 03:18:15;;;;;;;36.55;25.58;;;;;;;8.97;100.00;101223.69;5260035;28;20033;-70
2021/11/21 03:20:46;;;;;;;36.20;25.30;;;;;;;8.98;100.00;101226.22;5259557;28;20494;-70
2021/11/21 03:23:17;;;;;;;34.28;24.77;;;;;;;8.95;100.00;101215.97;5257750;28;20056;-70
2021/11/21 03:25:49;;;;;;;34.20;24.60;;;;;;;8.96;100.00;101208.97;5257314;28;20033;-70
2021/11/21 03:28:20;;;;;;;34.72;24.88;;;;;;;9.01;100.00;101212.91;5259503;28;20033;-70
2021/11/21 03:30:51;;;;;;;37.33;25.00;;;;;;;9.02;100.00;101211.97;5259919;28;20111;-70
2021/11/21 03:33:23;;;;;;;37.05;25.73;;;;;;;9.01;100.00;101212.06;5257016;28;20497;-70
2021/11/21 03:35:54;;;;;;;39.67;27.42;;;;;;;9.01;100.00;101209.47;5260733;28;20055;-70
2021/11/21 03:38:26;;;;;;;40.40;27.00;;;;;;;9.01;100.00;101210.28;5259412;28;20445;-70
2021/11/21 03:40:57;;;;;;;40.90;25.92;;;;;;;9.00;100.00;101211.25;5257399;28;20025;-70
2021/11/21 03:43:29;;;;;;;39.15;27.17;;;;;;;9.01;100.00;101205.06;5260267;28;20025;-70
2021/11/21 03:46:00;;;;;;;40.58;27.13;;;;;;;9.04;100.00;101198.78;5258486;28;20104;-70
2021/11/21 03:48:31;;;;;;;43.17;28.77;;;;;;;9.04;100.00;101190.13;5258272;28;20040;-70
2021/11/21 03:51:03;;;;;;;40.58;28.10;;;;;;;9.07;100.00;101188.13;5257607;28;20024;-70
2021/11/21 03:53:35;;;;;;;42.88;29.25;;;;;;;9.05;100.00;101183.94;5258924;28;20413;-70
2021/11/21 03:56:07;;;;;;;41.27;28.13;;;;;;;9.09;100.00;101185.38;5256181;28;20039;-70
2021/11/21 03:58:38;;;;;;;42.03;28.65;;;;;;;9.05;100.00;101184.78;5257292;28;20294;-70
2021/11/21 04:01:09;;;;;;;45.42;28.30;;;;;;;9.07;100.00;101174.22;5258560;28;20021;-70
2021/11/21 04:03:42;;;;;;;44.13;29.05;;;;;;;9.05;100.00;101174.31;5259783;28;20116;-70
2021/11/21 04:06:14;;;;;;;45.78;29.50;;;;;;;9.08;100.00;101175.88;5256589;28;20021;-70
2021/11/21 04:08:45;;;;;;;44.22;29.30;;;;;;;9.08;100.00;101174.09;5255960;28;20394;-70
2021/11/21 04:11:16;;;;;;;47.78;29.48;;;;;;;9.08;100.00;101178.50;5257878;28;20080;-70
2021/11/21 04:13:48;;;;;;;47.15;30.17;;;;;;;9.02;100.00;101166.72;5260589;28;20025;-70
2021/11/21 04:16:19;;;;;;;46.50;29.55;;;;;;;9.07;100.00;101169.00;5257864;28;20391;-70
2021/11/21 04:18:51;;;;;;;44.40;30.67;;;;;;;9.05;100.00;101145.56;5257527;28;20695;-70
2021/11/21 04:21:22;;;;;;;51.40;31.00;;;;;;;9.07;100.00;101161.16;5260846;28;20033;-70
2021/11/21 04:23:54;;;;;;;51.38;31.58;;;;;;;9.08;100.00;101155.81;5259617;28;20146;-70
2021/11/21 04:26:25;;;;;;;45.88;29.83;;;;;;;9.08;100.00;101155.81;5260135;28;20414;-70
2021/11/21 04:28:57;;;;;;;48.10;30.92;;;;;;;9.10;100.00;101156.53;5256763;28;20106;-70
2021/11/21 04:31:28;;;;;;;50.33;30.88;;;;;;;9.06;100.00;101149.03;5257943;28;20561;-70
2021/11/21 04:33:59;;;;;;;46.00;30.25;;;;;;;9.07;100.00;101156.75;5260131;28;20035;-70
2021/11/21 04:36:32;;;;;;;49.33;31.15;;;;;;;9.07;100.00;101159.38;5256190;28;20033;-70
2021/11/21 04:39:04;;;;;;;47.67;31.08;;;;;;;9.10;100.00;101160.94;5256494;28;20445;-70
2021/11/21 04:41:35;;;;;;;46.33;30.05;;;;;;;9.03;100.00;101139.63;5258075;28;20756;-70
2021/11/21 04:44:07;;;;;;;46.92;31.48;;;;;;;9.10;100.00;101150.47;5259644;28;20424;-70
2021/11/21 04:46:38;;;;;;;50.20;31.95;;;;;;;9.05;100.00;101131.66;5257829;28;20035;-70
2021/11/21 04:49:09;;;;;;;49.95;30.55;;;;;;;9.10;100.00;101140.03;5257436;28;20479;-70
2021/11/21 04:51:41;;;;;;;46.95;30.90;;;;;;;9.16;100.00;101134.31;5256062;28;20422;-70
2021/11/21 04:54:17;;;;;;;49.00;31.00;;;;;;;9.18;100.00;101127.22;5256238;28;20107;-70
2021/11/21 04:56:49;;;;;;;50.42;31.05;;;;;;;9.18;100.00;101125.44;5254690;28;20067;-70
2021/11/21 04:59:21;;;;;;;49.75;32.08;;;;;;;9.18;100.00;101125.44;5255260;28;20045;-70
2021/11/21 05:01:53;;;;;;;46.78;30.67;;;;;;;9.16;100.00;101118.63;5255624;28;20032;-70
2021/11/21 05:04:24;;;;;;;50.85;32.42;;;;;;;9.16;100.00;101127.31;5254504;28;20040;-70
2021/11/21 05:06:56;;;;;;;48.63;31.45;;;;;;;9.16;100.00;101116.03;5256255;28;20089;-70
2021/11/21 05:09:27;;;;;;;54.47;33.58;;;;;;;9.16;100.00;101116.84;5254178;28;20040;-70
2021/11/21 05:11:58;;;;;;;50.80;31.55;;;;;;;9.19;100.00;101118.41;5233483;28;20478;-70
2021/11/21 05:14:30;;;;;;;53.78;33.35;;;;;;;9.20;100.00;101120.06;5235711;28;20036;-70
2021/11/21 05:17:02;;;;;;;52.58;32.25;;;;;;;9.07;100.00;101096.66;5234235;28;20069;-70
2021/11/21 05:19:33;;;;;;;54.70;34.70;;;;;;;9.16;100.00;101108.19;5234751;28;20545;-70
2021/11/21 05:22:04;;;;;;;50.35;32.67;;;;;;;9.15;100.00;101104.75;5237486;28;20436;-70
2021/11/21 05:24:36;;;;;;;53.70;33.03;;;;;;;9.18;100.00;101112.38;5236317;28;20474;-70
2021/11/21 05:27:07;;;;;;;52.65;33.17;;;;;;;9.19;100.00;101111.41;5232134;28;20041;-70
2021/11/21 05:29:38;;;;;;;56.15;34.08;;;;;;;9.19;100.00;101113.19;5236282;28;20076;-70
2021/11/21 05:32:10;;;;;;;53.40;33.25;;;;;;;9.17;100.00;101115.09;5236436;28;20359;-70
2021/11/21 05:34:41;;;;;;;50.88;31.85;;;;;;;9.16;100.00;101113.41;5234833;28;20029;-70
2021/11/21 05:37:13;;;;;;;52.22;32.42;;;;;;;9.21;100.00;101116.53;5236175;28;20494;-70
2021/11/21 05:39:44;;;;;;;54.28;33.47;;;;;;;9.20;100.00;101117.47;5234372;28;20492;-70
2021/11/21 05:42:16;;;;;;;51.65;32.92;;;;;;;9.20;100.00;101107.00;5235234;28;20530;-70
2021/11/21 05:44:47;;;;;;;51.70;32.65;;;;;;;9.24;100.00;101117.16;5236168;28;20120;-70
2021/11/21 05:47:18;;;;;;;45.22;29.25;;;;;;;9.21;100.00;101111.31;5236119;28;20021;-70
2021/11/21 05:49:49;;;;;;;44.50;28.23;;;;;;;9.21;100.00;101117.38;5237170;28;20128;-70
2021/11/21 05:52:21;;;;;;;47.60;29.80;;;;;;;9.20;100.00;101117.47;5234251;28;20033;-70
2021/11/21 05:54:52;;;;;;;42.10;27.50;;;;;;;9.22;100.00;101123.44;5235483;28;20024;-70
2021/11/21 05:57:23;;;;;;;47.20;30.75;;;;;;;9.21;100.00;101111.31;5234532;28;20037;-70
2021/11/21 05:59:55;;;;;;;43.92;28.17;;;;;;;9.19;100.00;101116.63;5234962;28;20497;-70
2021/11/21 06:02:26;;;;;;;46.95;29.17;;;;;;;9.20;100.00;101107.84;5237634;28;20033;-70
2021/11/21 06:04:58;;;;;;;47.17;30.40;;;;;;;9.22;100.00;101102.50;5235863;28;20108;-70
2021/11/21 06:07:29;;;;;;;49.95;29.40;;;;;;;9.25;100.00;101107.53;5238205;28;20259;-70
2021/11/21 06:10:02;;;;;;;48.30;30.17;;;;;;;9.29;100.00;101114.19;5236710;28;20061;-70
2021/11/21 06:12:34;;;;;;;47.75;29.45;;;;;;;9.29;100.00;101115.97;5254084;28;20053;-70
2021/11/21 06:15:08;;;;;;;48.97;30.60;;;;;;;9.27;100.00;101103.00;5256864;28;20098;-70
2021/11/21 06:17:43;;;;;;;49.10;30.92;;;;;;;9.27;100.00;101116.06;5254585;28;20039;-70
2021/11/21 06:20:14;;;;;;;49.13;30.08;;;;;;;9.32;100.00;101134.00;5256715;28;20060;-70
2021/11/21 06:22:45;;;;;;;47.38;29.95;;;;;;;9.32;100.00;101119.19;5256208;28;20545;-70
2021/11/21 06:25:17;;;;;;;47.80;28.90;;;;;;;9.38;100.00;101123.94;5257499;28;20035;-70
2021/11/21 06:27:48;;;;;;;46.13;28.42;;;;;;;9.43;100.00;101119.22;5257881;28;20439;-69
2021/11/21 06:30:20;;;;;;;47.83;28.80;;;;;;;9.44;100.00;101122.66;5259003;28;20032;-70
2021/11/21 06:32:51;;;;;;;45.72;30.17;;;;;;;9.46;100.00;101121.56;5263131;28;20116;-70
2021/11/21 06:35:22;;;;;;;43.70;27.98;;;;;;;9.49;100.00;101123.97;5263023;28;20024;-70
2021/11/21 06:37:54;;;;;;;46.85;29.17;;;;;;;9.50;100.00;101114.31;5263128;28;20037;-70
2021/11/21 06:40:26;;;;;;;47.17;28.45;;;;;;;9.49;100.00;101116.09;5260719;28;20024;-70
2021/11/21 06:42:57;;;;;;;43.17;28.35;;;;;;;9.48;100.00;101121.47;5261145;28;20025;-70
2021/11/21 06:45:29;;;;;;;44.05;28.15;;;;;;;9.50;100.00;101119.56;5262465;28;20132;-70
2021/11/21 06:48:00;;;;;;;43.78;27.77;;;;;;;9.52;100.00;101122.91;5261277;28;20028;-70
2021/11/21 06:50:32;;;;;;;44.30;28.00;;;;;;;9.52;100.00;101117.66;5263273;28;20046;-70
2021/11/21 06:53:04;;;;;;;42.15;27.48;;;;;;;9.49;100.00;101110.88;5261642;28;20020;-70
2021/11/21 06:55:35;;;;;;;44.07;27.33;;;;;;;9.53;100.00;101116.72;5259397;28;20059;-70
2021/11/21 06:58:07;;;;;;;45.17;29.20;;;;;;;9.53;100.00;101121.13;5262355;28;20138;-70
2021/11/21 07:00:38;;;;;;;42.38;27.38;;;;;;;9.53;100.00;101118.50;5262144;28;20024;-70
2021/11/21 07:03:09;;;;;;;44.00;28.08;;;;;;;9.55;100.00;101121.84;5261726;28;20112;-71
2021/11/21 07:05:41;;;;;;;42.65;27.63;;;;;;;9.56;100.00;101121.72;5259093;28;20028;-70
2021/11/21 07:08:12;;;;;;;42.22;26.38;;;;;;;9.53;100.00;101110.66;5261581;28;20024;-70
2021/11/21 07:10:43;;;;;;;48.70;28.88;;;;;;;9.55;100.00;101122.69;5258221;28;20810;-71
2021/11/21 07:13:15;;;;;;;47.08;28.45;;;;;;;9.54;100.00;101123.59;5259865;28;20020;-70
2021/11/21 07:15:47;;;;;;;42.35;27.42;;;;;;;9.58;100.00;101127.66;5259938;28;20031;-70
2021/11/21 07:18:18;;;;;;;54.03;29.05;;;;;;;9.61;100.00;101126.59;5259290;28;20035;-70
2021/11/21 07:20:50;;;;;;;43.50;29.25;;;;;;;9.59;100.00;101131.94;5259965;28;20021;-71
2021/11/21 07:23:21;;;;;;;47.65;28.48;;;;;;;9.60;100.00;101133.59;5259298;28;20033;-70
2021/11/21 07:25:53;;;;;;;45.80;29.23;;;;;;;9.59;100.00;101139.81;5260300;28;20103;-70
2021/11/21 07:28:24;;;;;;;46.28;28.02;;;;;;;9.58;100.00;101137.28;5261099;28;20109;-70
2021/11/21 07:30:56;;;;;;;44.92;28.42;;;;;;;9.57;100.00;101143.47;5260651;28;20044;-71
2021/11/21 07:33:27;;;;;;;45.42;27.30;;;;;;;9.58;100.00;101147.75;5259270;28;20560;-73
2021/11/21 07:35:58;;;;;;;37.63;26.02;;;;;;;9.54;100.00;101141.09;5259092;28;20675;-71
2021/11/21 07:38:30;;;;;;;37.42;25.60;;;;;;;9.55;100.00;101143.59;5259870;28;20428;-70
2021/11/21 07:41:02;;;;;;;38.20;24.85;;;;;;;9.56;100.00;101147.88;5259614;28;20513;-71
2021/11/21 07:43:33;;;;;;;37.50;23.33;;;;;;;9.56;100.00;101147.03;5242761;28;20044;-71
2021/11/21 07:46:05;;;;;;;40.13;23.83;;;;;;;9.58;100.00;101147.75;5260983;28;20570;-71
2021/11/21 07:48:36;;;;;;;41.10;24.75;;;;;;;9.57;100.00;101160.00;5258734;28;20043;-74
2021/11/21 07:51:08;;;;;;;40.63;24.52;;;;;;;9.59;100.00;101158.09;5257903;28;20060;-71
2021/11/21 07:53:39;;;;;;;39.03;24.25;;;;;;;9.59;100.00;101157.28;5260658;28;20094;-71
2021/11/21 07:56:10;;;;;;;36.08;24.67;;;;;;;9.59;100.00;101157.28;5259045;28;20028;-71
2021/11/21 07:58:42;;;;;;;38.55;23.40;;;;;;;9.60;100.00;101158.94;5258421;28;20067;-72
2021/11/21 08:01:13;;;;;;;33.28;22.55;;;;;;;9.61;100.00;101156.19;5258006;28;20037;-69
2021/11/21 08:03:44;;;;;;;34.63;22.65;;;;;;;9.60;100.00;101154.53;5259134;28;20028;-69
2021/11/21 08:06:16;;;;;;;36.05;22.38;;;;;;;9.60;100.00;101151.09;5261360;28;20474;-70
2021/11/21 08:08:47;;;;;;;32.17;21.17;;;;;;;9.63;100.00;101166.56;5258618;28;20512;-70
2021/11/21 08:11:18;;;;;;;34.63;21.17;;;;;;;9.64;100.00;101163.81;5258789;28;20144;-69
2021/11/21 08:13:50;;;;;;;32.95;21.30;;;;;;;9.66;100.00;101161.06;5260436;28;20035;-71
2021/11/21 08:16:21;;;;;;;31.52;20.58;;;;;;;9.67;100.00;101162.75;5258619;28;20653;-70
2021/11/21 08:18:52;;;;;;;32.42;20.10;;;;;;;9.67;100.00;101168.00;5251806;28;20025;-70
2021/11/21 08:21:24;;;;;;;29.15;18.75;;;;;;;9.68;100.00;101175.72;5254017;28;20831;-70
2021/11/21 08:23:55;;;;;;;31.15;19.33;;;;;;;9.67;100.00;101174.06;5257602;28;20032;-69
2021/11/21 08:26:27;;;;;;;29.95;19.23;;;;;;;9.69;100.00;101171.31;5259403;28;20056;-70
2021/11/21 08:28:58;;;;;;;24.92;15.98;;;;;;;9.69;100.00;101172.13;5257767;28;20367;-71
2021/11/21 08:31:29;;;;;;;25.25;15.68;;;;;;;9.72;100.00;101177.16;5258962;28;20037;-69
2021/11/21 08:34:01;;;;;;;22.85;15.23;;;;;;;9.74;100.00;101172.66;5257099;28;20685;-70
2021/11/21 08:36:32;;;;;;;21.65;14.38;;;;;;;9.79;100.00;101179.31;5258101;28;20087;-69
2021/11/21 08:39:04;;;;;;;22.05;14.10;;;;;;;9.79;100.00;101184.53;5257990;28;20132;-71
2021/11/21 08:41:36;;;;;;;20.23;14.23;;;;;;;9.78;100.00;101177.66;5258058;28;20098;-71
2021/11/21 08:44:07;;;;;;;24.42;15.30;;;;;;;9.79;100.00;101187.16;5258006;28;20032;-71
2021/11/21 08:46:39;;;;;;;21.23;14.20;;;;;;;9.83;100.00;101191.19;5255245;28;20417;-69
2021/11/21 08:49:10;;;;;;;23.90;13.85;;;;;;;9.83;100.00;101194.66;5253053;28;20483;-71
2021/11/21 08:51:45;;;;;;;18.88;12.18;;;;;;;9.82;100.00;101185.13;5255080;28;20510;-70
2021/11/21 08:54:17;;;;;;;18.52;11.13;;;;;;;9.85;100.00;101190.16;5256209;28;20082;-69
2021/11/21 08:56:49;;;;;;;17.00;10.63;;;;;;;9.87;100.00;101193.47;5256446;28;20430;-70
2021/11/21 08:59:20;;;;;;;18.80;11.40;;;;;;;9.87;100.00;101193.47;5257329;28;20123;-70
2021/11/21 09:01:52;;;;;;;17.35;10.07;;;;;;;9.94;100.00;101186.81;5258110;28;20549;-69
2021/11/21 09:04:23;;;;;;;16.98;10.00;;;;;;;9.97;100.00;101181.34;5254217;28;20123;-69
2021/11/21 09:06:55;;;;;;;15.63;8.15;;;;;;;10.04;100.00;101184.34;5256220;28;20413;-70
2021/11/21 09:09:26;;;;;;;13.88;7.18;;;;;;;10.05;100.00;101182.56;5256668;28;20086;-70
2021/11/21 09:11:57;;;;;;;14.95;7.18;;;;;;;10.08;100.00;101184.94;5255796;28;20048;-71
2021/11/21 09:14:29;;;;;;;13.15;7.28;;;;;;;10.11;100.00;101182.88;5256616;28;20033;-71
2021/11/21 09:17:00;;;;;;;13.68;6.13;;;;;;;10.14;100.00;101187.88;5256248;28;20508;-71
2021/11/21 09:19:32;;;;;;;12.60;5.80;;;;;;;10.16;100.00;101187.78;5255858;28;20051;-69
2021/11/21 09:22:03;;;;;;;15.13;6.03;;;;;;;10.17;100.00;101189.44;5255711;28;21398;-71
2021/11/21 09:24:34;;;;;;;12.70;4.75;;;;;;;10.16;100.00;101191.25;5257697;28;20394;-71
2021/11/21 09:27:07;;;;;;;9.98;5.13;;;;;;;10.19;100.00;101198.84;5255994;28;20031;-71
2021/11/21 09:29:38;;;;;;;12.57;4.78;;;;;;;10.24;100.00;101195.88;5257650;28;20851;-71
2021/11/21 09:32:12;;;;;;;11.70;5.28;;;;;;;10.28;100.00;101193.88;5256269;28;20029;-69
2021/11/21 09:34:43;;;;;;;11.30;5.18;;;;;;;10.27;100.00;101200.09;5255511;28;20029;-70
2021/11/21 09:37:15;;;;;;;11.82;4.70;;;;;;;10.30;100.00;101205.06;5255504;28;20028;-70
2021/11/21 09:39:46;;;;;;;12.95;4.53;;;;;;;10.33;100.00;101216.13;5257664;28;20028;-70
2021/11/21 09:42:18;;;;;;;11.10;4.80;;;;;;;10.36;100.00;101209.84;5257390;28;20083;-70
2021/11/21 09:44:49;;;;;;;8.32;3.88;;;;;;;10.35;100.00;101203.75;5257094;28;20062;-70
2021/11/21 09:47:21;;;;;;;8.35;4.13;;;;;;;10.37;100.00;101207.06;5256434;28;20287;-70
2021/11/21 09:49:53;;;;;;;8.60;3.47;;;;;;;10.38;100.00;101207.91;5256136;28;20020;-70
2021/11/21 09:52:24;;;;;;;8.55;3.60;;;;;;;10.37;100.00;101207.06;5255381;28;20425;-70
2021/11/21 09:54:55;;;;;;;10.10;3.25;;;;;;;10.35;100.00;101216.03;5255914;28;20509;-70
2021/11/21 09:57:29;;;;;;;10.95;3.60;;;;;;;10.37;100.00;101217.56;5256014;28;20033;-70
2021/11/21 10:00:10;;;;;;;9.70;3.40;;;;;;;10.42;100.00;101222.47;5255004;28;20192;-71
2021/11/21 10:02:45;;;;;;;11.70;3.83;;;;;;;10.42;100.00;101228.53;5256238;28;20374;-69
2021/11/21 10:05:25;;;;;;;10.82;3.30;;;;;;;10.53;100.00;101221.59;5258371;28;20024;-71
2021/11/21 10:08:15;;;;;;;11.68;3.20;;;;;;;10.63;100.00;101214.69;5260886;28;20324;-70
2021/11/21 10:10:54;;;;;;;6.72;2.97;;;;;;;10.52;100.00;101214.69;5260062;28;20024;-70
2021/11/21 10:13:34;;;;;;;9.32;3.58;;;;;;;10.51;100.00;101216.50;5258880;28;20297;-71
2021/11/21 10:16:18;;;;;;;9.65;3.13;;;;;;;10.62;100.00;101206.00;5258420;28;20143;-70
2021/11/21 10:18:51;;;;;;;;;;;;;;;11.02;100.00;101207.19;5259490;28;20036;-69
2021/11/21 10:21:28;;;;;;;8.45;2.60;;;;;;;10.54;100.00;101205.78;5261677;28;19927;-70
2021/11/21 10:24:29;;;;;;;11.35;2.90;;;;;;;10.64;100.00;101204.06;5261158;28;20541;-70
2021/11/21 10:27:05;;;;;;;6.63;2.40;;;;;;;10.51;100.00;101208.63;5259993;28;20036;-69
2021/11/21 10:29:43;;;;;;;12.25;2.70;;;;;;;10.53;100.00;101201.50;5258698;28;20119;-70
2021/11/21 10:32:16;;;;;;;9.50;2.75;;;;;;;10.50;100.00;101212.22;5260680;28;20043;-70
2021/11/21 10:34:54;;;;;;;9.25;2.50;;;;;;;10.48;100.00;101212.31;5259835;28;20021;-70
2021/11/21 10:37:38;;;;;;;8.50;2.35;;;;;;;10.63;100.00;101212.06;5260207;28;20028;-69
2021/11/21 10:40:15;;;;;;;10.43;2.70;;;;;;;10.57;100.00;101207.28;5258904;28;20367;-69
2021/11/21 10:42:50;;;;;;;11.40;2.78;;;;;;;10.54;100.00;101212.81;5258706;28;20475;-71
2021/11/21 10:45:28;;;;;;;10.35;2.53;;;;;;;10.61;100.00;101214.00;5260796;28;20078;-69
2021/11/21 10:48:00;;;;;;;7.65;2.92;;;;;;;10.54;100.00;101207.56;5259291;28;20173;-69
2021/11/21 10:50:39;;;;;;;8.32;3.00;;;;;;;10.70;100.00;101202.75;5259873;28;20098;-70
2021/11/21 10:53:12;;;;;;;7.07;2.28;;;;;;;10.66;100.00;101207.41;5259918;28;20038;-70
2021/11/21 10:55:43;;;;;;;7.40;2.38;;;;;;;10.70;100.00;101200.97;5241385;28;20031;-69
2021/11/21 10:58:18;;;;;;;7.95;1.95;;;;;;;10.73;100.00;101210.38;5259108;28;20203;-69
2021/11/21 11:00:57;;;;;;;15.02;2.50;;;;;;;10.75;100.00;101213.69;5259321;28;20025;-70
2021/11/21 11:03:28;;;;;;;10.32;2.38;;;;;;;10.64;100.00;101213.72;5261269;28;20111;-69
2021/11/21 11:06:29;;;;;;;9.40;2.40;;;;;;;10.90;100.00;101214.28;5260554;28;20452;-70
2021/11/21 11:09:21;;;;;;;10.35;2.28;;;;;;;10.99;100.00;101212.72;5260110;28;20090;-70
2021/11/21 11:11:53;;;;;;;11.50;2.20;;;;;;;10.75;100.00;101216.31;5260057;28;20489;-70
2021/11/21 11:14:25;;;;;;;10.48;2.78;;;;;;;10.85;100.00;101213.81;5260093;28;20067;-69
2021/11/21 11:16:57;;;;;;;9.18;2.80;;;;;;;10.85;100.00;101213.81;5259032;28;20549;-70
2021/11/21 11:19:31;;;;;;;15.57;3.00;;;;;;;10.90;100.00;101217.72;5256630;28;20296;-70
2021/11/21 11:22:04;;;;;;;9.93;2.50;;;;;;;10.89;100.00;101213.44;5255376;28;20296;-70
2021/11/21 11:24:45;;;;;;;10.57;2.45;;;;;;;11.02;100.00;101223.75;5259124;28;20115;-69
2021/11/21 11:27:31;;;;;;;14.32;3.03;;;;;;;10.99;100.00;101218.78;5253591;28;20039;-69
2021/11/21 11:30:03;;;;;;;9.88;2.50;;;;;;;10.84;100.00;101225.25;5260847;28;20040;-70
2021/11/21 11:32:38;;;;;;;11.30;2.40;;;;;;;10.89;100.00;101223.09;5259063;28;20020;-70